Time,TemperatureF,DewpointF,PressureIn,WindDirection,WindDirectionDegrees,WindSpeedMPH,WindSpeedGustMPH,Humidity,HourlyPrecipIn,Conditions,Clouds,dailyrainin,SoftwareType,DateUTC
2013-04-10 00:01:00,64.4,60.1,29.97,SSE,157,2.2,-999.0,86,-99.99,,,0.00,Acu-Link.com,2013-04-10 04:01:00,
2013-04-10 00:17:00,64.0,60.4,29.95,SSE,157,2.7,-999.0,88,-99.99,,,0.00,Acu-Link.com,2013-04-10 04:17:00,
2013-04-10 00:32:00,64.0,60.4,29.96,ESE,112,4.2,-999.0,88,-99.99,,,0.00,Acu-Link.com,2013-04-10 04:32:00,
2013-04-10 00:47:00,64.0,60.7,29.95,SE,135,3.2,-999.0,89,-99.99,,,0.00,Acu-Link.com,2013-04-10 04:47:00,
2013-04-10 01:02:00,63.5,60.8,29.95,ESE,112,0.0,-999.0,91,-99.99,,,0.00,Acu-Link.com,2013-04-10 05:02:00,
2013-04-10 01:17:00,63.0,60.6,29.94,ENE,67,2.7,-999.0,92,-99.99,,,0.00,Acu-Link.com,2013-04-10 05:17:00,
2013-04-10 01:33:00,62.6,60.5,29.94,ESE,112,1.7,-999.0,93,-99.99,,,0.00,Acu-Link.com,2013-04-10 05:33:00,
2013-04-10 01:48:00,62.1,60.0,29.95,ESE,112,0.0,-999.0,93,-99.99,,,0.00,Acu-Link.com,2013-04-10 05:48:00,
2013-04-10 02:03:00,61.7,60.0,29.93,SE,135,0.0,-999.0,94,-99.99,,,0.00,Acu-Link.com,2013-04-10 06:03:00,
2013-04-10 02:18:00,61.5,60.1,29.92,East,90,3.7,-999.0,95,-99.99,,,0.00,Acu-Link.com,2013-04-10 06:18:00,
2013-04-10 02:33:00,61.3,59.9,29.91,SSE,157,1.7,-999.0,95,-99.99,,,0.00,Acu-Link.com,2013-04-10 06:33:00,
2013-04-10 02:49:00,61.2,60.0,29.91,East,90,2.2,-999.0,96,-99.99,,,0.00,Acu-Link.com,2013-04-10 06:49:00,
2013-04-10 03:04:00,61.2,60.0,29.92,ESE,112,0.0,-999.0,96,-99.99,,,0.00,Acu-Link.com,2013-04-10 07:04:00,
2013-04-10 03:19:00,61.3,60.1,29.91,ESE,112,2.2,-999.0,96,-99.99,,,0.00,Acu-Link.com,2013-04-10 07:19:00,
2013-04-10 03:34:00,61.0,59.8,29.91,SE,135,0.0,-999.0,96,-99.99,,,0.00,Acu-Link.com,2013-04-10 07:34:00,
2013-04-10 03:50:00,60.6,59.7,29.90,NE,45,0.0,-999.0,97,-99.99,,,0.00,Acu-Link.com,2013-04-10 07:50:00,
2013-04-10 04:05:00,60.3,59.4,29.90,NE,45,0.0,-999.0,97,-99.99,,,0.00,Acu-Link.com,2013-04-10 08:05:00,
2013-04-10 04:20:00,60.3,59.7,29.90,NE,45,0.0,-999.0,98,-99.99,,,0.00,Acu-Link.com,2013-04-10 08:20:00,
2013-04-10 04:35:00,60.1,59.5,29.91,ESE,112,0.0,-999.0,98,-99.99,,,0.00,Acu-Link.com,2013-04-10 08:35:00,
2013-04-10 04:51:00,59.7,59.1,29.91,South,180,0.0,-999.0,98,-99.99,,,0.00,Acu-Link.com,2013-04-10 08:51:00,
2013-04-10 05:06:00,59.7,59.1,29.92,NE,45,0.0,-999.0,98,-99.99,,,0.00,Acu-Link.com,2013-04-10 09:06:00,
2013-04-10 05:21:00,59.7,59.4,29.90,NNE,22,0.0,-999.0,99,-99.99,,,0.00,Acu-Link.com,2013-04-10 09:21:00,
2013-04-10 05:36:00,59.9,59.6,29.90,West,270,0.0,-999.0,99,-99.99,,,0.00,Acu-Link.com,2013-04-10 09:36:00,
2013-04-10 05:51:00,59.5,59.2,29.90,West,270,0.0,-999.0,99,-99.99,,,0.00,Acu-Link.com,2013-04-10 09:51:00,
2013-04-10 06:06:00,60.4,60.1,29.90,SSW,202,0.0,-999.0,99,-99.99,,,0.00,Acu-Link.com,2013-04-10 10:06:00,
2013-04-10 06:22:00,60.1,59.8,29.90,WSW,247,0.0,-999.0,99,-99.99,,,0.00,Acu-Link.com,2013-04-10 10:22:00,
2013-04-10 06:37:00,60.4,60.1,29.91,SSW,202,0.0,-999.0,99,-99.99,,,0.00,Acu-Link.com,2013-04-10 10:37:00,
2013-04-10 06:52:00,60.1,59.8,29.90,WSW,247,0.0,-999.0,99,-99.99,,,0.00,Acu-Link.com,2013-04-10 10:52:00,
2013-04-10 07:07:00,59.9,59.6,29.90,SW,225,0.0,-999.0,99,-99.99,,,0.00,Acu-Link.com,2013-04-10 11:07:00,
2013-04-10 07:22:00,59.9,59.6,29.90,SSW,202,0.0,-999.0,99,-99.99,,,0.00,Acu-Link.com,2013-04-10 11:22:00,
2013-04-10 07:38:00,60.8,60.5,29.90,SW,225,0.0,-999.0,99,-99.99,,,0.00,Acu-Link.com,2013-04-10 11:38:00,
2013-04-10 07:53:00,64.8,64.5,29.91,NE,45,0.0,-999.0,99,-99.99,,,0.00,Acu-Link.com,2013-04-10 11:53:00,
2013-04-10 08:08:00,67.6,66.7,29.91,ESE,112,0.0,-999.0,97,-99.99,,,0.00,Acu-Link.com,2013-04-10 12:08:00,
2013-04-10 08:23:00,72.3,67.2,29.91,NE,45,0.0,-999.0,84,-99.99,,,0.00,Acu-Link.com,2013-04-10 12:23:00,
2013-04-10 08:38:00,75.6,67.5,29.91,ESE,112,1.7,-999.0,76,-99.99,,,0.00,Acu-Link.com,2013-04-10 12:38:00,
2013-04-10 08:54:00,77.4,67.6,29.92,East,90,2.7,-999.0,72,-99.99,,,0.00,Acu-Link.com,2013-04-10 12:54:00,
2013-04-10 09:09:00,78.6,67.1,29.93,ESE,112,4.7,-999.0,68,-99.99,,,0.00,Acu-Link.com,2013-04-10 13:09:00,
2013-04-10 09:24:00,74.1,66.4,29.92,SE,135,1.1,-999.0,77,-99.99,,,0.00,Acu-Link.com,2013-04-10 13:24:00,
2013-04-10 09:39:00,76.1,67.2,29.92,ESE,112,3.7,-999.0,74,-99.99,,,0.00,Acu-Link.com,2013-04-10 13:39:00,
2013-04-10 09:55:00,77.0,67.3,29.93,ESE,112,5.3,-999.0,72,-99.99,,,0.00,Acu-Link.com,2013-04-10 13:55:00,
2013-04-10 10:10:00,78.3,66.8,29.94,ENE,67,6.8,-999.0,68,-99.99,,,0.00,Acu-Link.com,2013-04-10 14:10:00,
2013-04-10 10:25:00,80.2,66.4,29.93,ESE,112,8.9,-999.0,63,-99.99,,,0.00,Acu-Link.com,2013-04-10 14:25:00,
2013-04-10 10:40:00,79.9,64.8,29.93,ESE,112,3.7,-999.0,60,-99.99,,,0.00,Acu-Link.com,2013-04-10 14:40:00,
2013-04-10 10:55:00,81.7,64.5,29.93,ESE,112,8.3,-999.0,56,-99.99,,,0.00,Acu-Link.com,2013-04-10 14:55:00,
2013-04-10 11:11:00,82.2,64.4,29.92,SSE,157,7.3,-999.0,55,-99.99,,,0.00,Acu-Link.com,2013-04-10 15:11:00,
2013-04-10 11:26:00,81.3,65.1,29.92,ESE,112,1.7,-999.0,58,-99.99,,,0.00,Acu-Link.com,2013-04-10 15:26:00,
2013-04-10 11:41:00,80.4,63.7,29.92,West,270,2.2,-999.0,57,-99.99,,,0.00,Acu-Link.com,2013-04-10 15:41:00,
2013-04-10 11:56:00,79.5,63.9,29.92,South,180,3.7,-999.0,59,-99.99,,,0.00,Acu-Link.com,2013-04-10 15:56:00,
2013-04-10 12:11:00,81.5,65.3,29.91,WSW,247,1.7,-999.0,58,-99.99,,,0.00,Acu-Link.com,2013-04-10 16:11:00,
2013-04-10 12:27:00,81.1,64.9,29.92,SW,225,4.2,-999.0,58,-99.99,,,0.00,Acu-Link.com,2013-04-10 16:27:00,
2013-04-10 12:42:00,84.2,65.2,29.90,SSE,157,1.7,-999.0,53,-99.99,,,0.00,Acu-Link.com,2013-04-10 16:42:00,
2013-04-10 12:57:00,84.2,64.1,29.90,WNW,292,3.7,-999.0,51,-99.99,,,0.00,Acu-Link.com,2013-04-10 16:57:00,
2013-04-10 13:12:00,82.2,63.9,29.89,WNW,292,1.1,-999.0,54,-99.99,,,0.00,Acu-Link.com,2013-04-10 17:12:00,
2013-04-10 13:28:00,84.2,63.5,29.88,SSE,157,2.7,-999.0,50,-99.99,,,0.00,Acu-Link.com,2013-04-10 17:28:00,
2013-04-10 13:43:00,84.0,62.8,29.89,SE,135,5.3,-999.0,49,-99.99,,,0.00,Acu-Link.com,2013-04-10 17:43:00,
2013-04-10 13:58:00,82.8,63.9,29.87,West,270,2.7,-999.0,53,-99.99,,,0.00,Acu-Link.com,2013-04-10 17:58:00,
2013-04-10 14:13:00,84.0,62.8,29.87,NNW,337,2.7,-999.0,49,-99.99,,,0.00,Acu-Link.com,2013-04-10 18:13:00,
2013-04-10 14:29:00,86.7,61.5,29.86,South,180,2.7,-999.0,43,-99.99,,,0.00,Acu-Link.com,2013-04-10 18:29:00,
2013-04-10 14:44:00,87.3,64.0,29.86,NNW,337,2.2,-999.0,46,-99.99,,,0.00,Acu-Link.com,2013-04-10 18:44:00,
2013-04-10 14:59:00,87.4,64.0,29.86,East,90,2.2,-999.0,46,-99.99,,,0.00,Acu-Link.com,2013-04-10 18:59:00,
2013-04-10 15:14:00,85.5,64.1,29.85,West,270,4.2,-999.0,49,-99.99,,,0.00,Acu-Link.com,2013-04-10 19:14:00,
2013-04-10 15:29:00,86.0,62.8,29.85,ESE,112,1.1,-999.0,46,-99.99,,,0.00,Acu-Link.com,2013-04-10 19:29:00,
2013-04-10 15:45:00,86.2,63.6,29.84,NE,45,2.7,-999.0,47,-99.99,,,0.00,Acu-Link.com,2013-04-10 19:45:00,
2013-04-10 16:00:00,86.5,63.2,29.83,SSE,157,5.8,-999.0,46,-99.99,,,0.00,Acu-Link.com,2013-04-10 20:00:00,
2013-04-10 16:15:00,87.1,62.5,29.82,ESE,112,5.8,-999.0,44,-99.99,,,0.00,Acu-Link.com,2013-04-10 20:15:00,
2013-04-10 16:30:00,86.9,62.3,29.82,SE,135,3.7,-999.0,44,-99.99,,,0.00,Acu-Link.com,2013-04-10 20:30:00,
2013-04-10 16:45:00,85.6,62.4,29.81,East,90,5.3,-999.0,46,-99.99,,,0.00,Acu-Link.com,2013-04-10 20:45:00,
2013-04-10 17:16:00,85.5,62.9,29.82,ESE,112,3.7,-999.0,47,-99.99,,,0.00,Acu-Link.com,2013-04-10 21:16:00,
2013-04-10 17:31:00,85.5,62.9,29.81,ESE,112,2.7,-999.0,47,-99.99,,,0.00,Acu-Link.com,2013-04-10 21:31:00,
2013-04-10 17:46:00,87.3,65.2,29.81,South,180,6.3,-999.0,48,-99.99,,,0.00,Acu-Link.com,2013-04-10 21:46:00,
2013-04-10 18:02:00,87.1,65.0,29.80,SSE,157,3.2,-999.0,48,-99.99,,,0.00,Acu-Link.com,2013-04-10 22:02:00,
2013-04-10 18:17:00,86.5,64.4,29.81,ESE,112,3.7,-999.0,48,-99.99,,,0.00,Acu-Link.com,2013-04-10 22:17:00,
2013-04-10 18:32:00,85.8,65.0,29.81,SE,135,6.3,-999.0,50,-99.99,,,0.00,Acu-Link.com,2013-04-10 22:32:00,
2013-04-10 18:47:00,83.8,65.9,29.80,ESE,112,5.8,-999.0,55,-99.99,,,0.00,Acu-Link.com,2013-04-10 22:47:00,
2013-04-10 19:02:00,82.4,66.6,29.81,SE,135,8.9,-999.0,59,-99.99,,,0.00,Acu-Link.com,2013-04-10 23:02:00,
2013-04-10 19:18:00,80.6,66.4,29.81,ESE,112,3.7,-999.0,62,-99.99,,,0.00,Acu-Link.com,2013-04-10 23:18:00,
2013-04-10 19:33:00,79.5,66.2,29.80,ESE,112,8.9,-999.0,64,-99.99,,,0.00,Acu-Link.com,2013-04-10 23:33:00,
2013-04-10 19:48:00,78.3,66.8,29.80,East,90,5.8,-999.0,68,-99.99,,,0.00,Acu-Link.com,2013-04-10 23:48:00,
2013-04-10 20:03:00,77.2,67.5,29.81,SSE,157,6.3,-999.0,72,-99.99,,,0.00,Acu-Link.com,2013-04-11 00:03:00,
2013-04-10 20:18:00,76.3,67.8,29.80,SE,135,7.8,-999.0,75,-99.99,,,0.00,Acu-Link.com,2013-04-11 00:18:00,
2013-04-10 20:34:00,75.7,68.0,29.81,ESE,112,6.8,-999.0,77,-99.99,,,0.00,Acu-Link.com,2013-04-11 00:34:00,
2013-04-10 20:49:00,75.4,68.4,29.82,ESE,112,9.9,-999.0,79,-99.99,,,0.00,Acu-Link.com,2013-04-11 00:49:00,
2013-04-10 21:04:00,74.8,68.9,29.83,ESE,112,7.8,-999.0,82,-99.99,,,0.00,Acu-Link.com,2013-04-11 01:04:00,
2013-04-10 21:19:00,74.3,69.1,29.83,ESE,112,7.8,-999.0,84,-99.99,,,0.00,Acu-Link.com,2013-04-11 01:19:00,
2013-04-10 21:35:00,73.9,69.1,29.83,SE,135,3.7,-999.0,85,-99.99,,,0.00,Acu-Link.com,2013-04-11 01:35:00,
2013-04-10 21:50:00,73.8,69.3,29.83,SE,135,6.8,-999.0,86,-99.99,,,0.00,Acu-Link.com,2013-04-11 01:50:00,
2013-04-10 22:05:00,73.4,69.3,29.83,SE,135,3.2,-999.0,87,-99.99,,,0.00,Acu-Link.com,2013-04-11 02:05:00,
2013-04-10 22:20:00,73.0,69.2,29.83,ESE,112,6.3,-999.0,88,-99.99,,,0.00,Acu-Link.com,2013-04-11 02:20:00,
2013-04-10 22:35:00,72.7,69.3,29.83,SE,135,5.8,-999.0,89,-99.99,,,0.00,Acu-Link.com,2013-04-11 02:35:00,
2013-04-10 22:51:00,72.5,69.4,29.82,ESE,112,7.3,-999.0,90,-99.99,,,0.00,Acu-Link.com,2013-04-11 02:51:00,
2013-04-10 23:21:00,72.3,69.5,29.82,SE,135,3.7,-999.0,91,-99.99,,,0.00,Acu-Link.com,2013-04-11 03:21:00,
2013-04-10 23:37:00,72.1,69.6,29.81,ESE,112,7.3,-999.0,92,-99.99,,,0.00,Acu-Link.com,2013-04-11 03:37:00,
2013-04-10 23:52:00,72.1,69.6,29.82,ESE,112,2.7,-999.0,92,-99.99,,,0.00,Acu-Link.com,2013-04-11 03:52:00,